sensor_id;sensor_type;location;lat;lon;timestamp;pressure;altitude;pressure_sealevel;temperature;humidity
21828;BME280;11076;47.942;11.804;2023-02-04T00:00:56;95127.88;;;3.04;100.00
21828;BME280;11076;47.942;11.804;2023-02-04T00:05:59;95117.63;;;3.01;100.00
21828;BME280;11076;47.942;11.804;2023-02-04T00:11:01;95112.44;;;2.91;100.00
21828;BME280;11076;47.942;11.804;2023-02-04T00:16:04;95104.31;;;2.85;100.00
21828;BME280;11076;47.942;11.804;2023-02-04T00:21:06;95092.09;;;2.84;100.00
21828;BME280;11076;47.942;11.804;2023-02-04T00:26:09;95119.63;;;2.81;100.00
21828;BME280;11076;47.942;11.804;2023-02-04T00:31:11;95132.84;;;2.81;100.00
21828;BME280;11076;47.942;11.804;2023-02-04T00:36:14;95143.03;;;2.76;100.00
21828;BME280;11076;47.942;11.804;2023-02-04T00:41:16;95157.50;;;2.72;100.00
21828;BME280;11076;47.942;11.804;2023-02-04T00:46:20;95160.31;;;2.70;100.00
21828;BME280;11076;47.942;11.804;2023-02-04T00:51:22;95159.88;;;2.75;100.00
21828;BME280;11076;47.942;11.804;2023-02-04T00:56:25;95184.31;;;2.77;100.00
21828;BME280;11076;47.942;11.804;2023-02-04T01:01:28;95167.47;;;2.78;100.00
21828;BME280;11076;47.942;11.804;2023-02-04T01:06:31;95172.47;;;2.81;100.00
21828;BME280;11076;47.942;11.804;2023-02-04T01:11:35;95180.38;;;2.81;100.00
21828;BME280;11076;47.942;11.804;2023-02-04T01:16:37;95180.38;;;2.81;100.00
21828;BME280;11076;47.942;11.804;2023-02-04T01:21:40;95191.25;;;2.78;100.00
21828;BME280;11076;47.942;11.804;2023-02-04T01:26:45;95196.84;;;2.75;100.00
21828;BME280;11076;47.942;11.804;2023-02-04T01:31:47;95213.97;;;2.71;100.00
21828;BME280;11076;47.942;11.804;2023-02-04T01:36:49;95229.41;;;2.66;100.00
21828;BME280;11076;47.942;11.804;2023-02-04T01:41:52;95258.06;;;2.61;100.00
21828;BME280;11076;47.942;11.804;2023-02-04T01:46:55;95257.53;;;2.39;100.00
21828;BME280;11076;47.942;11.804;2023-02-04T01:51:57;95262.56;;;2.23;100.00
21828;BME280;11076;47.942;11.804;2023-02-04T01:57:00;95267.47;;;2.17;100.00
21828;BME280;11076;47.942;11.804;2023-02-04T02:07:46;95251.34;;;2.21;100.00
21828;BME280;11076;47.942;11.804;2023-02-04T02:12:49;95248.50;;;2.32;100.00
21828;BME280;11076;47.942;11.804;2023-02-04T02:17:53;95254.88;;;2.39;100.00
21828;BME280;11076;47.942;11.804;2023-02-04T02:23:10;95267.63;;;2.44;100.00
21828;BME280;11076;47.942;11.804;2023-02-04T02:28:17;95268.41;;;2.54;100.00
21828;BME280;11076;47.942;11.804;2023-02-04T02:33:21;95273.34;;;2.67;100.00
21828;BME280;11076;47.942;11.804;2023-02-04T02:38:24;95273.44;;;2.75;100.00
21828;BME280;11076;47.942;11.804;2023-02-04T02:43:27;95284.28;;;2.90;100.00
21828;BME280;11076;47.942;11.804;2023-02-04T02:48:30;95294.78;;;2.99;100.00
21828;BME280;11076;47.942;11.804;2023-02-04T02:53:32;95293.91;;;3.09;100.00
21828;BME280;11076;47.942;11.804;2023-02-04T02:58:35;95301.22;;;3.15;100.00
21828;BME280;11076;47.942;11.804;2023-02-04T03:03:42;95291.19;;;3.18;100.00
21828;BME280;11076;47.942;11.804;2023-02-04T03:08:49;95289.22;;;3.03;100.00
21828;BME280;11076;47.942;11.804;2023-02-04T03:13:53;95289.81;;;2.96;100.00
21828;BME280;11076;47.942;11.804;2023-02-04T03:18:55;95293.16;;;2.98;100.00
21828;BME280;11076;47.942;11.804;2023-02-04T03:23:58;95299.78;;;3.03;100.00
21828;BME280;11076;47.942;11.804;2023-02-04T03:29:01;95320.59;;;3.06;100.00
21828;BME280;11076;47.942;11.804;2023-02-04T03:34:03;95333.69;;;3.07;100.00
21828;BME280;11076;47.942;11.804;2023-02-04T03:39:06;95349.38;;;3.09;100.00
21828;BME280;11076;47.942;11.804;2023-02-04T03:44:08;95355.72;;;3.16;100.00
21828;BME280;11076;47.942;11.804;2023-02-04T03:49:10;95359.72;;;3.20;100.00
21828;BME280;11076;47.942;11.804;2023-02-04T03:54:13;95374.31;;;3.24;100.00
21828;BME280;11076;47.942;11.804;2023-02-04T03:59:15;95376.66;;;3.27;100.00
21828;BME280;11076;47.942;11.804;2023-02-04T04:04:18;95377.53;;;3.18;100.00
21828;BME280;11076;47.942;11.804;2023-02-04T04:09:20;95377.47;;;3.10;100.00
21828;BME280;11076;47.942;11.804;2023-02-04T04:14:22;95401.38;;;3.08;100.00
21828;BME280;11076;47.942;11.804;2023-02-04T04:19:25;95396.88;;;3.01;100.00
21828;BME280;11076;47.942;11.804;2023-02-04T04:24:27;95412.16;;;2.97;100.00
21828;BME280;11076;47.942;11.804;2023-02-04T04:29:29;95419.97;;;2.98;100.00
21828;BME280;11076;47.942;11.804;2023-02-04T04:34:32;95430.53;;;2.98;100.00
21828;BME280;11076;47.942;11.804;2023-02-04T04:39:34;95435.50;;;3.02;100.00
21828;BME280;11076;47.942;11.804;2023-02-04T04:44:36;95440.78;;;3.02;100.00
21828;BME280;11076;47.942;11.804;2023-02-04T04:49:39;95448.44;;;3.05;100.00
21828;BME280;11076;47.942;11.804;2023-02-04T04:54:41;95459.00;;;3.05;100.00
21828;BME280;11076;47.942;11.804;2023-02-04T04:59:43;95460.28;;;3.01;100.00
21828;BME280;11076;47.942;11.804;2023-02-04T05:04:46;95466.13;;;2.94;100.00
21828;BME280;11076;47.942;11.804;2023-02-04T05:09:48;95471.28;;;2.86;100.00
21828;BME280;11076;47.942;11.804;2023-02-04T05:14:50;95492.19;;;2.70;100.00
21828;BME280;11076;47.942;11.804;2023-02-04T05:19:53;95493.38;;;2.38;100.00
21828;BME280;11076;47.942;11.804;2023-02-04T05:24:55;95488.41;;;2.06;100.00
21828;BME280;11076;47.942;11.804;2023-02-04T05:29:58;95502.03;;;1.91;100.00
21828;BME280;11076;47.942;11.804;2023-02-04T05:35:00;95500.34;;;1.81;100.00
21828;BME280;11076;47.942;11.804;2023-02-04T05:40:02;95524.91;;;1.71;100.00
21828;BME280;11076;47.942;11.804;2023-02-04T05:45:05;95526.28;;;1.66;100.00
21828;BME280;11076;47.942;11.804;2023-02-04T05:50:08;95538.47;;;1.57;100.00
21828;BME280;11076;47.942;11.804;2023-02-04T05:55:11;95555.09;;;1.48;100.00
21828;BME280;11076;47.942;11.804;2023-02-04T06:00:13;95570.31;;;1.34;100.00
21828;BME280;11076;47.942;11.804;2023-02-04T06:05:16;95576.00;;;1.30;100.00
21828;BME280;11076;47.942;11.804;2023-02-04T06:10:19;95582.88;;;1.52;100.00
21828;BME280;11076;47.942;11.804;2023-02-04T06:15:22;95589.00;;;1.62;100.00
21828;BME280;11076;47.942;11.804;2023-02-04T06:20:24;95608.13;;;1.54;100.00
21828;BME280;11076;47.942;11.804;2023-02-04T06:25:27;95604.84;;;1.31;100.00
21828;BME280;11076;47.942;11.804;2023-02-04T06:30:29;95607.63;;;1.09;100.00
21828;BME280;11076;47.942;11.804;2023-02-04T06:35:32;95617.03;;;1.02;100.00
21828;BME280;11076;47.942;11.804;2023-02-04T06:40:35;95624.50;;;0.96;100.00
21828;BME280;11076;47.942;11.804;2023-02-04T06:45:37;95627.38;;;0.93;100.00
21828;BME280;11076;47.942;11.804;2023-02-04T06:50:39;95628.59;;;0.89;100.00
21828;BME280;11076;47.942;11.804;2023-02-04T06:55:42;95629.56;;;0.88;100.00
21828;BME280;11076;47.942;11.804;2023-02-04T07:00:44;95633.78;;;1.01;100.00
21828;BME280;11076;47.942;11.804;2023-02-04T07:05:46;95643.34;;;1.23;100.00
21828;BME280;11076;47.942;11.804;2023-02-04T07:10:49;95653.47;;;1.27;100.00
21828;BME280;11076;47.942;11.804;2023-02-04T07:15:51;95650.16;;;1.25;100.00
21828;BME280;11076;47.942;11.804;2023-02-04T07:20:54;95657.88;;;1.17;100.00
21828;BME280;11076;47.942;11.804;2023-02-04T07:25:56;95663.47;;;1.24;100.00
21828;BME280;11076;47.942;11.804;2023-02-04T07:31:00;95670.63;;;1.43;100.00
21828;BME280;11076;47.942;11.804;2023-02-04T07:36:03;95680.81;;;1.57;100.00
21828;BME280;11076;47.942;11.804;2023-02-04T07:41:05;95678.41;;;1.75;100.00
21828;BME280;11076;47.942;11.804;2023-02-04T07:46:07;95683.16;;;1.91;100.00
21828;BME280;11076;47.942;11.804;2023-02-04T07:51:10;95681.44;;;2.01;100.00
21828;BME280;11076;47.942;11.804;2023-02-04T07:56:12;95690.75;;;2.05;100.00
21828;BME280;11076;47.942;11.804;2023-02-04T08:01:14;95698.50;;;1.97;100.00
21828;BME280;11076;47.942;11.804;2023-02-04T08:06:18;95707.91;;;1.90;100.00
21828;BME280;11076;47.942;11.804;2023-02-04T08:11:20;95702.66;;;1.99;100.00
21828;BME280;11076;47.942;11.804;2023-02-04T08:16:22;95712.69;;;2.15;100.00
21828;BME280;11076;47.942;11.804;2023-02-04T08:21:25;95722.59;;;2.43;100.00
21828;BME280;11076;47.942;11.804;2023-02-04T08:26:27;95725.16;;;2.64;100.00
21828;BME280;11076;47.942;11.804;2023-02-04T08:31:29;95728.94;;;2.71;100.00
21828;BME280;11076;47.942;11.804;2023-02-04T08:36:32;95721.16;;;2.79;100.00
21828;BME280;11076;47.942;11.804;2023-02-04T08:41:35;95736.59;;;3.13;100.00
21828;BME280;11076;47.942;11.804;2023-02-04T08:46:37;95738.91;;;3.45;100.00
21828;BME280;11076;47.942;11.804;2023-02-04T08:51:39;95735.31;;;3.46;100.00
21828;BME280;11076;47.942;11.804;2023-02-04T08:56:42;95742.50;;;3.54;100.00
21828;BME280;11076;47.942;11.804;2023-02-04T09:01:44;95738.09;;;3.45;100.00
21828;BME280;11076;47.942;11.804;2023-02-04T09:06:52;95738.66;;;3.38;100.00
21828;BME280;11076;47.942;11.804;2023-02-04T09:11:54;95744.50;;;3.32;100.00
21828;BME280;11076;47.942;11.804;2023-02-04T09:16:56;95746.13;;;3.53;100.00
21828;BME280;11076;47.942;11.804;2023-02-04T09:21:59;95750.59;;;3.52;100.00
21828;BME280;11076;47.942;11.804;2023-02-04T09:27:01;95759.59;;;3.69;100.00
21828;BME280;11076;47.942;11.804;2023-02-04T09:32:03;95774.41;;;3.99;100.00
21828;BME280;11076;47.942;11.804;2023-02-04T09:37:06;95775.47;;;4.16;99.67
21828;BME280;11076;47.942;11.804;2023-02-04T09:42:15;95780.69;;;4.36;94.19
21828;BME280;11076;47.942;11.804;2023-02-04T09:47:21;95787.91;;;4.89;97.60
21828;BME280;11076;47.942;11.804;2023-02-04T09:52:26;95793.22;;;4.89;94.48
21828;BME280;11076;47.942;11.804;2023-02-04T09:57:29;95801.06;;;4.81;94.14
21828;BME280;11076;47.942;11.804;2023-02-04T10:02:33;95804.41;;;4.83;94.37
21828;BME280;11076;47.942;11.804;2023-02-04T10:07:36;95801.28;;;5.33;96.22
21828;BME280;11076;47.942;11.804;2023-02-04T10:12:38;95805.13;;;5.39;92.41
21828;BME280;11076;47.942;11.804;2023-02-04T10:17:41;95802.25;;;5.50;92.85
21828;BME280;11076;47.942;11.804;2023-02-04T10:22:45;95795.34;;;6.28;94.45
21828;BME280;11076;47.942;11.804;2023-02-04T10:27:56;95802.53;;;5.83;90.64
21828;BME280;11076;47.942;11.804;2023-02-04T10:32:59;95803.34;;;5.84;92.21
21828;BME280;11076;47.942;11.804;2023-02-04T10:38:06;95805.91;;;5.49;89.55
21828;BME280;11076;47.942;11.804;2023-02-04T10:43:16;95793.22;;;4.89;89.27
21828;BME280;11076;47.942;11.804;2023-02-04T10:48:19;95795.72;;;4.63;87.36
21828;BME280;11076;47.942;11.804;2023-02-04T10:53:23;95800.78;;;4.29;88.87
21828;BME280;11076;47.942;11.804;2023-02-04T10:58:44;95806.25;;;4.17;90.15
21828;BME280;11076;47.942;11.804;2023-02-04T11:03:47;95807.22;;;3.69;90.05
21828;BME280;11076;47.942;11.804;2023-02-04T11:08:52;95824.47;;;3.54;90.95
21828;BME280;11076;47.942;11.804;2023-02-04T11:13:59;95839.34;;;3.06;92.99
21828;BME280;11076;47.942;11.804;2023-02-04T11:19:10;95830.19;;;3.01;94.92
21828;BME280;11076;47.942;11.804;2023-02-04T11:39:20;95830.34;;;3.28;92.80
21828;BME280;11076;47.942;11.804;2023-02-04T11:44:22;95828.25;;;3.42;93.25
21828;BME280;11076;47.942;11.804;2023-02-04T11:49:26;95824.75;;;4.27;90.96
21828;BME280;11076;47.942;11.804;2023-02-04T11:54:28;95818.13;;;4.04;87.30
21828;BME280;11076;47.942;11.804;2023-02-04T11:59:31;95821.00;;;4.57;89.06
21828;BME280;11076;47.942;11.804;2023-02-04T12:04:33;95829.56;;;4.42;86.24
21828;BME280;11076;47.942;11.804;2023-02-04T12:09:46;95833.66;;;3.59;86.22
21828;BME280;11076;47.942;11.804;2023-02-04T12:15:12;95836.75;;;3.65;86.94
21828;BME280;11076;47.942;11.804;2023-02-04T12:20:15;95824.66;;;3.43;88.07
21828;BME280;11076;47.942;11.804;2023-02-04T12:25:18;95825.06;;;3.28;88.31
21828;BME280;11076;47.942;11.804;2023-02-04T12:30:22;95809.00;;;3.78;88.06
21828;BME280;11076;47.942;11.804;2023-02-04T12:35:24;95810.03;;;3.38;86.80
21828;BME280;11076;47.942;11.804;2023-02-04T12:40:27;95803.19;;;2.87;89.32
21828;BME280;11076;47.942;11.804;2023-02-04T12:45:29;95809.81;;;2.72;90.80
21828;BME280;11076;47.942;11.804;2023-02-04T12:50:32;95813.63;;;3.08;91.41
21828;BME280;11076;47.942;11.804;2023-02-04T12:55:34;95809.34;;;3.17;91.43
21828;BME280;11076;47.942;11.804;2023-02-04T13:00:37;95824.34;;;3.36;91.01
21828;BME280;11076;47.942;11.804;2023-02-04T13:05:39;95824.91;;;3.20;90.88
21828;BME280;11076;47.942;11.804;2023-02-04T13:10:42;95817.53;;;3.33;90.97
21828;BME280;11076;47.942;11.804;2023-02-04T13:15:45;95825.72;;;3.50;88.94
21828;BME280;11076;47.942;11.804;2023-02-04T13:20:47;95832.50;;;2.84;87.93
21828;BME280;11076;47.942;11.804;2023-02-04T13:25:50;95832.47;;;2.74;88.84
21828;BME280;11076;47.942;11.804;2023-02-04T13:30:52;95844.34;;;2.90;88.92
21828;BME280;11076;47.942;11.804;2023-02-04T13:35:55;95855.41;;;2.74;88.40
21828;BME280;11076;47.942;11.804;2023-02-04T13:40:58;95860.66;;;2.64;89.67
21828;BME280;11076;47.942;11.804;2023-02-04T13:46:01;95862.69;;;2.41;90.99
21828;BME280;11076;47.942;11.804;2023-02-04T13:51:05;95858.88;;;2.34;90.41
21828;BME280;11076;47.942;11.804;2023-02-04T13:56:07;95870.28;;;2.65;90.67
21828;BME280;11076;47.942;11.804;2023-02-04T14:01:10;95864.91;;;2.86;89.59
21828;BME280;11076;47.942;11.804;2023-02-04T14:06:13;95870.22;;;3.06;89.28
21828;BME280;11076;47.942;11.804;2023-02-04T14:11:16;95874.72;;;3.15;88.81
21828;BME280;11076;47.942;11.804;2023-02-04T14:16:18;95880.00;;;3.15;87.05
21828;BME280;11076;47.942;11.804;2023-02-04T14:21:20;95888.84;;;3.04;86.14
21828;BME280;11076;47.942;11.804;2023-02-04T14:26:24;95898.88;;;3.01;87.92
21828;BME280;11076;47.942;11.804;2023-02-04T14:31:26;95894.56;;;2.99;88.46
21828;BME280;11076;47.942;11.804;2023-02-04T14:36:29;95900.22;;;2.85;88.43
21828;BME280;11076;47.942;11.804;2023-02-04T14:41:31;95900.19;;;2.75;89.13
21828;BME280;11076;47.942;11.804;2023-02-04T14:46:33;95900.13;;;2.96;89.13
21828;BME280;11076;47.942;11.804;2023-02-04T14:51:36;95901.63;;;2.89;89.05
21828;BME280;11076;47.942;11.804;2023-02-04T14:56:38;95911.03;;;2.82;89.81
21828;BME280;11076;47.942;11.804;2023-02-04T15:01:40;95912.59;;;2.85;90.07
21828;BME280;11076;47.942;11.804;2023-02-04T15:06:43;95919.41;;;2.87;90.58
21828;BME280;11076;47.942;11.804;2023-02-04T15:11:47;95928.66;;;3.03;91.03
21828;BME280;11076;47.942;11.804;2023-02-04T15:16:49;95923.66;;;3.09;90.67
21828;BME280;11076;47.942;11.804;2023-02-04T15:21:51;95926.34;;;2.88;90.19
21828;BME280;11076;47.942;11.804;2023-02-04T15:26:55;95928.50;;;2.64;90.85
21828;BME280;11076;47.942;11.804;2023-02-04T15:31:57;95943.88;;;2.49;92.32
21828;BME280;11076;47.942;11.804;2023-02-04T15:37:00;95944.25;;;2.44;93.41
21828;BME280;11076;47.942;11.804;2023-02-04T15:42:03;95943.94;;;2.37;93.49
21828;BME280;11076;47.942;11.804;2023-02-04T15:47:05;95943.09;;;2.16;94.02
21828;BME280;11076;47.942;11.804;2023-02-04T15:52:07;95949.94;;;1.97;94.61
21828;BME280;11076;47.942;11.804;2023-02-04T15:57:14;95963.56;;;1.82;95.19
21828;BME280;11076;47.942;11.804;2023-02-04T16:02:16;95964.09;;;1.64;95.82
21828;BME280;11076;47.942;11.804;2023-02-04T16:07:19;95968.38;;;1.33;96.67
21828;BME280;11076;47.942;11.804;2023-02-04T16:12:21;95961.44;;;1.21;96.98
21828;BME280;11076;47.942;11.804;2023-02-04T16:17:24;95974.25;;;1.25;97.33
21828;BME280;11076;47.942;11.804;2023-02-04T16:22:26;95978.34;;;1.07;98.10
21828;BME280;11076;47.942;11.804;2023-02-04T16:27:28;95985.53;;;1.05;98.39
21828;BME280;11076;47.942;11.804;2023-02-04T16:32:32;95988.16;;;1.05;99.02
21828;BME280;11076;47.942;11.804;2023-02-04T16:37:35;95993.91;;;0.87;98.56
21828;BME280;11076;47.942;11.804;2023-02-04T16:42:38;95992.75;;;0.80;99.26
21828;BME280;11076;47.942;11.804;2023-02-04T16:47:41;96005.78;;;0.70;99.10
21828;BME280;11076;47.942;11.804;2023-02-04T16:52:43;96008.50;;;0.57;99.72
21828;BME280;11076;47.942;11.804;2023-02-04T16:57:45;96012.78;;;0.47;99.68
21828;BME280;11076;47.942;11.804;2023-02-04T17:02:48;96013.94;;;0.32;99.58
21828;BME280;11076;47.942;11.804;2023-02-04T17:07:50;96014.16;;;0.17;99.70
21828;BME280;11076;47.942;11.804;2023-02-04T17:12:52;96015.19;;;0.04;99.95
21828;BME280;11076;47.942;11.804;2023-02-04T17:17:55;96031.41;;;-0.14;100.00
21828;BME280;11076;47.942;11.804;2023-02-04T17:22:57;96040.84;;;-0.11;100.00
21828;BME280;11076;47.942;11.804;2023-02-04T17:28:00;96040.59;;;-0.08;100.00
21828;BME280;11076;47.942;11.804;2023-02-04T17:33:02;96039.88;;;-0.10;100.00
21828;BME280;11076;47.942;11.804;2023-02-04T17:38:04;96050.84;;;0.08;100.00
21828;BME280;11076;47.942;11.804;2023-02-04T17:43:07;96047.69;;;0.27;100.00
21828;BME280;11076;47.942;11.804;2023-02-04T17:48:10;96049.59;;;0.25;100.00
21828;BME280;11076;47.942;11.804;2023-02-04T17:53:12;96051.25;;;0.26;100.00
21828;BME280;11076;47.942;11.804;2023-02-04T17:58:16;96060.28;;;0.34;100.00
21828;BME280;11076;47.942;11.804;2023-02-04T18:03:22;96063.00;;;0.33;100.00
21828;BME280;11076;47.942;11.804;2023-02-04T18:08:35;96065.38;;;0.25;100.00
21828;BME280;11076;47.942;11.804;2023-02-04T18:13:39;96073.91;;;0.39;100.00
21828;BME280;11076;47.942;11.804;2023-02-04T18:18:41;96072.25;;;0.38;100.00
21828;BME280;11076;47.942;11.804;2023-02-04T18:23:44;96063.63;;;0.36;100.00
21828;BME280;11076;47.942;11.804;2023-02-04T18:28:48;96062.34;;;0.42;100.00
21828;BME280;11076;47.942;11.804;2023-02-04T18:33:51;96064.00;;;0.43;100.00
21828;BME280;11076;47.942;11.804;2023-02-04T18:38:54;96055.63;;;0.38;100.00
21828;BME280;11076;47.942;11.804;2023-02-04T18:44:14;96057.06;;;0.07;100.00
21828;BME280;11076;47.942;11.804;2023-02-04T18:49:25;96070.25;;;-0.06;100.00
21828;BME280;11076;47.942;11.804;2023-02-04T18:54:34;96077.38;;;-0.19;100.00
21828;BME280;11076;47.942;11.804;2023-02-04T18:59:38;96074.25;;;-0.25;100.00
21828;BME280;11076;47.942;11.804;2023-02-04T19:04:41;96069.09;;;-0.26;100.00
21828;BME280;11076;47.942;11.804;2023-02-04T19:09:44;96067.31;;;-0.26;100.00
21828;BME280;11076;47.942;11.804;2023-02-04T19:14:47;96073.44;;;-0.38;100.00
21828;BME280;11076;47.942;11.804;2023-02-04T19:19:57;96069.94;;;-0.63;100.00
21828;BME280;11076;47.942;11.804;2023-02-04T19:25:32;96069.34;;;-0.79;100.00
21828;BME280;11076;47.942;11.804;2023-02-04T19:30:59;96075.91;;;-0.97;100.00
21828;BME280;11076;47.942;11.804;2023-02-04T19:36:27;96069.16;;;-1.02;100.00
21828;BME280;11076;47.942;11.804;2023-02-04T19:46:45;96061.19;;;-1.26;100.00
21828;BME280;11076;47.942;11.804;2023-02-04T19:51:52;96063.72;;;-1.24;100.00
21828;BME280;11076;47.942;11.804;2023-02-04T19:56:55;96057.84;;;-1.41;100.00
21828;BME280;11076;47.942;11.804;2023-02-04T20:07:24;96077.38;;;-1.45;100.00
21828;BME280;11076;47.942;11.804;2023-02-04T20:12:28;96073.72;;;-1.29;100.00
21828;BME280;11076;47.942;11.804;2023-02-04T20:17:40;96076.13;;;-1.26;100.00
21828;BME280;11076;47.942;11.804;2023-02-04T20:22:48;96079.66;;;-1.02;100.00
21828;BME280;11076;47.942;11.804;2023-02-04T20:27:53;96077.72;;;-0.74;100.00
21828;BME280;11076;47.942;11.804;2023-02-04T20:38:33;96080.25;;;-0.72;100.00
21828;BME280;11076;47.942;11.804;2023-02-04T20:43:36;96081.31;;;-0.75;100.00
21828;BME280;11076;47.942;11.804;2023-02-04T20:48:42;96090.66;;;-0.71;100.00
21828;BME280;11076;47.942;11.804;2023-02-04T20:53:54;96095.59;;;-0.66;100.00
21828;BME280;11076;47.942;11.804;2023-02-04T21:09:30;96094.03;;;-0.69;100.00
21828;BME280;11076;47.942;11.804;2023-02-04T21:14:33;96112.22;;;-0.78;100.00
21828;BME280;11076;47.942;11.804;2023-02-04T21:19:36;96107.06;;;-1.06;100.00
21828;BME280;11076;47.942;11.804;2023-02-04T21:24:38;96107.72;;;-1.15;100.00
21828;BME280;11076;47.942;11.804;2023-02-04T21:29:41;96117.88;;;-1.36;100.00
21828;BME280;11076;47.942;11.804;2023-02-04T21:34:43;96117.56;;;-1.57;100.00
21828;BME280;11076;47.942;11.804;2023-02-04T21:39:45;96119.09;;;-1.67;100.00
21828;BME280;11076;47.942;11.804;2023-02-04T21:44:48;96133.97;;;-1.81;100.00
21828;BME280;11076;47.942;11.804;2023-02-04T21:49:50;96133.06;;;-1.94;100.00
21828;BME280;11076;47.942;11.804;2023-02-04T21:54:52;96137.88;;;-2.01;100.00
21828;BME280;11076;47.942;11.804;2023-02-04T21:59:55;96133.38;;;-1.98;100.00
21828;BME280;11076;47.942;11.804;2023-02-04T22:04:57;96138.31;;;-1.94;100.00
21828;BME280;11076;47.942;11.804;2023-02-04T22:10:00;96140.03;;;-1.93;100.00
21828;BME280;11076;47.942;11.804;2023-02-04T22:15:03;96152.38;;;-1.95;100.00
21828;BME280;11076;47.942;11.804;2023-02-04T22:20:06;96151.72;;;-1.98;100.00
21828;BME280;11076;47.942;11.804;2023-02-04T22:25:10;96151.81;;;-2.00;100.00
21828;BME280;11076;47.942;11.804;2023-02-04T22:30:14;96147.72;;;-2.04;100.00
21828;BME280;11076;47.942;11.804;2023-02-04T22:35:17;96151.25;;;-2.05;100.00
21828;BME280;11076;47.942;11.804;2023-02-04T22:40:19;96149.25;;;-2.14;100.00
21828;BME280;11076;47.942;11.804;2023-02-04T22:45:22;96150.78;;;-2.25;100.00
21828;BME280;11076;47.942;11.804;2023-02-04T22:50:24;96140.31;;;-2.25;100.00
21828;BME280;11076;47.942;11.804;2023-02-04T22:55:26;96143.66;;;-2.23;100.00
21828;BME280;11076;47.942;11.804;2023-02-04T23:00:29;96153.41;;;-2.25;100.00
21828;BME280;11076;47.942;11.804;2023-02-04T23:05:31;96140.47;;;-2.28;100.00
21828;BME280;11076;47.942;11.804;2023-02-04T23:10:34;96144.06;;;-2.29;100.00
21828;BME280;11076;47.942;11.804;2023-02-04T23:15:37;96137.31;;;-2.33;100.00
21828;BME280;11076;47.942;11.804;2023-02-04T23:20:40;96133.56;;;-2.29;100.00
21828;BME280;11076;47.942;11.804;2023-02-04T23:25:44;96133.84;;;-2.33;100.00
21828;BME280;11076;47.942;11.804;2023-02-04T23:30:47;96140.88;;;-2.34;100.00
21828;BME280;11076;47.942;11.804;2023-02-04T23:35:49;96137.50;;;-2.36;100.00
21828;BME280;11076;47.942;11.804;2023-02-04T23:40:52;96135.81;;;-2.37;100.00
21828;BME280;11076;47.942;11.804;2023-02-04T23:46:01;96135.25;;;-2.28;100.00
21828;BME280;11076;47.942;11.804;2023-02-04T23:51:04;96134.06;;;-2.36;100.00
21828;BME280;11076;47.942;11.804;2023-02-04T23:56:06;96143.59;;;-2.35;100.00
